Terminal Aerodrome Forecast
Issued by NWS Mt. Holly, NJ

Home | Current Version | Previous Version | Text Only | Print | Product List | Glossary On
Versions: 1 2 3 4 5 6 7 8 9 10 11 12 13 14 15 16 17 18 19 20 21 22 23 24 25
332
FTUS41 KPHI 241750
TAFRDG
TAF
KRDG 241750Z 2418/2518 13009G19KT P6SM SCT040
     FM241900 11008KT P6SM SCT045 BKN080
     FM250500 09013KT P6SM -SHRA BKN018
     FM250700 07014G23KT 3SM SHRA OVC007
     FM251600 11007KT 6SM BR SCT008 OVC015=

USA.gov is the U.S. government's official web portal to all federal, state and local government web resources and services.